sensor_id;sensor_type;location;lat;lon;timestamp;P1;durP1;ratioP1;P2;durP2;ratioP2
37267;SDS011;23154;52.542;13.362;2022-07-04T00:00:49;15.10;;;3.53;;
37267;SDS011;23154;52.542;13.362;2022-07-04T00:03:14;15.18;;;3.78;;
37267;SDS011;23154;52.542;13.362;2022-07-04T00:05:40;17.92;;;4.38;;
37267;SDS011;23154;52.542;13.362;2022-07-04T00:08:07;20.88;;;4.28;;
37267;SDS011;23154;52.542;13.362;2022-07-04T00:10:32;12.93;;;3.53;;
37267;SDS011;23154;52.542;13.362;2022-07-04T00:12:58;13.40;;;3.65;;
37267;SDS011;23154;52.542;13.362;2022-07-04T00:15:24;11.35;;;3.65;;
37267;SDS011;23154;52.542;13.362;2022-07-04T00:17:50;11.82;;;3.22;;
37267;SDS011;23154;52.542;13.362;2022-07-04T00:20:16;9.88;;;2.92;;
37267;SDS011;23154;52.542;13.362;2022-07-04T00:22:42;7.40;;;2.80;;
37267;SDS011;23154;52.542;13.362;2022-07-04T00:25:08;7.63;;;2.42;;
37267;SDS011;23154;52.542;13.362;2022-07-04T00:27:33;9.60;;;2.53;;
37267;SDS011;23154;52.542;13.362;2022-07-04T00:29:59;8.23;;;2.38;;
37267;SDS011;23154;52.542;13.362;2022-07-04T00:32:25;7.28;;;2.60;;
37267;SDS011;23154;52.542;13.362;2022-07-04T00:34:51;9.65;;;2.55;;
37267;SDS011;23154;52.542;13.362;2022-07-04T00:37:16;15.05;;;2.80;;
37267;SDS011;23154;52.542;13.362;2022-07-04T00:39:42;10.60;;;2.92;;
37267;SDS011;23154;52.542;13.362;2022-07-04T00:42:07;7.60;;;2.60;;
37267;SDS011;23154;52.542;13.362;2022-07-04T00:44:33;8.90;;;2.78;;
37267;SDS011;23154;52.542;13.362;2022-07-04T00:47:01;7.10;;;2.65;;
37267;SDS011;23154;52.542;13.362;2022-07-04T00:49:28;7.85;;;2.60;;
37267;SDS011;23154;52.542;13.362;2022-07-04T00:51:54;6.75;;;2.83;;
37267;SDS011;23154;52.542;13.362;2022-07-04T00:54:19;10.57;;;3.10;;
37267;SDS011;23154;52.542;13.362;2022-07-04T00:56:49;8.73;;;2.40;;
37267;SDS011;23154;52.542;13.362;2022-07-04T00:59:15;10.43;;;2.83;;
37267;SDS011;23154;52.542;13.362;2022-07-04T01:01:40;7.03;;;2.47;;
37267;SDS011;23154;52.542;13.362;2022-07-04T01:04:06;6.35;;;2.95;;
37267;SDS011;23154;52.542;13.362;2022-07-04T01:06:32;7.53;;;3.30;;
37267;SDS011;23154;52.542;13.362;2022-07-04T01:08:59;7.95;;;2.70;;
37267;SDS011;23154;52.542;13.362;2022-07-04T01:11:24;7.85;;;2.50;;
37267;SDS011;23154;52.542;13.362;2022-07-04T01:13:50;11.57;;;3.10;;
37267;SDS011;23154;52.542;13.362;2022-07-04T01:16:15;7.70;;;2.65;;
37267;SDS011;23154;52.542;13.362;2022-07-04T01:18:41;9.55;;;2.80;;
37267;SDS011;23154;52.542;13.362;2022-07-04T01:21:07;7.47;;;2.53;;
37267;SDS011;23154;52.542;13.362;2022-07-04T01:23:38;7.40;;;2.90;;
37267;SDS011;23154;52.542;13.362;2022-07-04T01:26:04;5.53;;;2.53;;
37267;SDS011;23154;52.542;13.362;2022-07-04T01:28:29;7.47;;;2.78;;
37267;SDS011;23154;52.542;13.362;2022-07-04T01:30:55;6.50;;;2.42;;
37267;SDS011;23154;52.542;13.362;2022-07-04T01:33:21;6.40;;;2.80;;
37267;SDS011;23154;52.542;13.362;2022-07-04T01:35:46;11.50;;;3.15;;
37267;SDS011;23154;52.542;13.362;2022-07-04T01:38:12;9.00;;;3.13;;
37267;SDS011;23154;52.542;13.362;2022-07-04T01:40:38;11.63;;;3.40;;
37267;SDS011;23154;52.542;13.362;2022-07-04T01:43:04;6.80;;;2.70;;
37267;SDS011;23154;52.542;13.362;2022-07-04T01:45:30;8.27;;;2.70;;
37267;SDS011;23154;52.542;13.362;2022-07-04T01:47:59;8.50;;;2.92;;
37267;SDS011;23154;52.542;13.362;2022-07-04T01:50:25;8.25;;;2.90;;
37267;SDS011;23154;52.542;13.362;2022-07-04T01:52:50;9.05;;;3.28;;
37267;SDS011;23154;52.542;13.362;2022-07-04T01:55:16;8.65;;;3.00;;
37267;SDS011;23154;52.542;13.362;2022-07-04T01:57:42;7.85;;;3.33;;
37267;SDS011;23154;52.542;13.362;2022-07-04T02:00:08;12.93;;;3.85;;
37267;SDS011;23154;52.542;13.362;2022-07-04T02:02:54;12.35;;;4.00;;
37267;SDS011;23154;52.542;13.362;2022-07-04T02:05:20;13.55;;;4.85;;
37267;SDS011;23154;52.542;13.362;2022-07-04T02:07:47;14.15;;;4.88;;
37267;SDS011;23154;52.542;13.362;2022-07-04T02:10:13;16.00;;;5.20;;
37267;SDS011;23154;52.542;13.362;2022-07-04T02:12:39;16.65;;;5.78;;
37267;SDS011;23154;52.542;13.362;2022-07-04T02:15:24;19.63;;;6.13;;
37267;SDS011;23154;52.542;13.362;2022-07-04T02:17:49;15.75;;;5.53;;
37267;SDS011;23154;52.542;13.362;2022-07-04T02:20:15;18.75;;;6.90;;
37267;SDS011;23154;52.542;13.362;2022-07-04T02:22:41;17.67;;;6.78;;
37267;SDS011;23154;52.542;13.362;2022-07-04T02:25:06;19.33;;;7.07;;
37267;SDS011;23154;52.542;13.362;2022-07-04T02:27:32;18.35;;;7.50;;
37267;SDS011;23154;52.542;13.362;2022-07-04T02:29:58;18.33;;;7.43;;
37267;SDS011;23154;52.542;13.362;2022-07-04T02:32:23;18.80;;;6.78;;
37267;SDS011;23154;52.542;13.362;2022-07-04T02:34:49;16.67;;;6.82;;
37267;SDS011;23154;52.542;13.362;2022-07-04T02:37:15;15.07;;;6.57;;
37267;SDS011;23154;52.542;13.362;2022-07-04T02:39:41;20.20;;;7.20;;
37267;SDS011;23154;52.542;13.362;2022-07-04T02:42:07;17.48;;;6.68;;
37267;SDS011;23154;52.542;13.362;2022-07-04T02:44:33;16.92;;;7.15;;
37267;SDS011;23154;52.542;13.362;2022-07-04T02:46:58;16.42;;;7.18;;
37267;SDS011;23154;52.542;13.362;2022-07-04T02:49:25;17.08;;;6.88;;
37267;SDS011;23154;52.542;13.362;2022-07-04T02:51:51;18.52;;;7.53;;
37267;SDS011;23154;52.542;13.362;2022-07-04T02:54:17;17.63;;;7.15;;
37267;SDS011;23154;52.542;13.362;2022-07-04T02:56:42;18.35;;;6.30;;
37267;SDS011;23154;52.542;13.362;2022-07-04T02:59:08;16.58;;;7.10;;
37267;SDS011;23154;52.542;13.362;2022-07-04T03:01:33;18.48;;;7.68;;
37267;SDS011;23154;52.542;13.362;2022-07-04T03:03:59;16.98;;;6.68;;
37267;SDS011;23154;52.542;13.362;2022-07-04T03:06:25;16.75;;;7.18;;
37267;SDS011;23154;52.542;13.362;2022-07-04T03:08:51;16.92;;;7.75;;
37267;SDS011;23154;52.542;13.362;2022-07-04T03:11:18;19.60;;;8.07;;
37267;SDS011;23154;52.542;13.362;2022-07-04T03:13:44;16.52;;;6.95;;
37267;SDS011;23154;52.542;13.362;2022-07-04T03:16:09;21.95;;;8.30;;
37267;SDS011;23154;52.542;13.362;2022-07-04T03:18:35;16.73;;;6.82;;
37267;SDS011;23154;52.542;13.362;2022-07-04T03:21:01;19.10;;;7.43;;
37267;SDS011;23154;52.542;13.362;2022-07-04T03:23:29;18.40;;;7.60;;
37267;SDS011;23154;52.542;13.362;2022-07-04T03:25:56;19.10;;;7.63;;
37267;SDS011;23154;52.542;13.362;2022-07-04T03:28:21;20.05;;;8.30;;
37267;SDS011;23154;52.542;13.362;2022-07-04T03:30:47;19.00;;;7.70;;
37267;SDS011;23154;52.542;13.362;2022-07-04T03:33:12;18.48;;;8.32;;
37267;SDS011;23154;52.542;13.362;2022-07-04T03:35:38;20.08;;;8.35;;
37267;SDS011;23154;52.542;13.362;2022-07-04T03:38:04;18.90;;;8.25;;
37267;SDS011;23154;52.542;13.362;2022-07-04T03:40:29;18.77;;;7.90;;
37267;SDS011;23154;52.542;13.362;2022-07-04T03:42:56;18.40;;;8.02;;
37267;SDS011;23154;52.542;13.362;2022-07-04T03:45:23;17.63;;;8.43;;
37267;SDS011;23154;52.542;13.362;2022-07-04T03:47:49;17.30;;;8.27;;
37267;SDS011;23154;52.542;13.362;2022-07-04T03:50:15;20.90;;;7.90;;
37267;SDS011;23154;52.542;13.362;2022-07-04T03:52:40;18.08;;;6.97;;
37267;SDS011;23154;52.542;13.362;2022-07-04T03:55:06;18.23;;;8.20;;
37267;SDS011;23154;52.542;13.362;2022-07-04T03:57:32;19.55;;;7.75;;
37267;SDS011;23154;52.542;13.362;2022-07-04T03:59:57;17.25;;;8.50;;
37267;SDS011;23154;52.542;13.362;2022-07-04T04:02:23;18.75;;;7.65;;
37267;SDS011;23154;52.542;13.362;2022-07-04T04:04:49;19.83;;;7.95;;
37267;SDS011;23154;52.542;13.362;2022-07-04T04:07:33;15.50;;;7.72;;
37267;SDS011;23154;52.542;13.362;2022-07-04T04:09:58;18.92;;;7.97;;
37267;SDS011;23154;52.542;13.362;2022-07-04T04:12:24;14.43;;;6.00;;
37267;SDS011;23154;52.542;13.362;2022-07-04T04:14:49;15.98;;;7.00;;
37267;SDS011;23154;52.542;13.362;2022-07-04T04:17:15;15.70;;;7.75;;
37267;SDS011;23154;52.542;13.362;2022-07-04T04:19:41;17.25;;;7.75;;
37267;SDS011;23154;52.542;13.362;2022-07-04T04:22:06;16.58;;;7.20;;
37267;SDS011;23154;52.542;13.362;2022-07-04T04:24:32;18.33;;;7.05;;
37267;SDS011;23154;52.542;13.362;2022-07-04T04:26:57;17.42;;;7.47;;
37267;SDS011;23154;52.542;13.362;2022-07-04T04:29:23;16.58;;;7.78;;
37267;SDS011;23154;52.542;13.362;2022-07-04T04:31:48;17.92;;;8.05;;
37267;SDS011;23154;52.542;13.362;2022-07-04T04:34:14;18.52;;;8.32;;
37267;SDS011;23154;52.542;13.362;2022-07-04T04:36:39;19.75;;;8.05;;
37267;SDS011;23154;52.542;13.362;2022-07-04T04:39:05;18.13;;;8.23;;
37267;SDS011;23154;52.542;13.362;2022-07-04T04:41:31;17.13;;;8.25;;
37267;SDS011;23154;52.542;13.362;2022-07-04T04:43:56;16.42;;;8.07;;
37267;SDS011;23154;52.542;13.362;2022-07-04T04:46:22;17.83;;;8.15;;
37267;SDS011;23154;52.542;13.362;2022-07-04T04:48:47;17.83;;;8.10;;
37267;SDS011;23154;52.542;13.362;2022-07-04T04:51:13;18.45;;;7.97;;
37267;SDS011;23154;52.542;13.362;2022-07-04T04:53:39;19.02;;;7.63;;
37267;SDS011;23154;52.542;13.362;2022-07-04T04:56:04;19.95;;;7.90;;
37267;SDS011;23154;52.542;13.362;2022-07-04T04:58:30;15.35;;;7.43;;
37267;SDS011;23154;52.542;13.362;2022-07-04T05:00:56;17.13;;;7.45;;
37267;SDS011;23154;52.542;13.362;2022-07-04T05:03:21;17.15;;;7.13;;
37267;SDS011;23154;52.542;13.362;2022-07-04T05:05:47;16.92;;;6.78;;
37267;SDS011;23154;52.542;13.362;2022-07-04T05:08:12;14.90;;;6.03;;
37267;SDS011;23154;52.542;13.362;2022-07-04T05:10:41;16.80;;;6.05;;
37267;SDS011;23154;52.542;13.362;2022-07-04T05:13:06;16.00;;;6.13;;
37267;SDS011;23154;52.542;13.362;2022-07-04T05:15:32;14.38;;;5.35;;
37267;SDS011;23154;52.542;13.362;2022-07-04T05:17:58;16.52;;;5.75;;
37267;SDS011;23154;52.542;13.362;2022-07-04T05:20:24;18.23;;;5.95;;
37267;SDS011;23154;52.542;13.362;2022-07-04T05:22:49;16.00;;;5.47;;
37267;SDS011;23154;52.542;13.362;2022-07-04T05:25:15;17.58;;;5.28;;
37267;SDS011;23154;52.542;13.362;2022-07-04T05:27:41;14.63;;;5.43;;
37267;SDS011;23154;52.542;13.362;2022-07-04T05:30:07;14.25;;;5.20;;
37267;SDS011;23154;52.542;13.362;2022-07-04T05:32:33;11.85;;;4.80;;
37267;SDS011;23154;52.542;13.362;2022-07-04T05:34:59;13.88;;;5.10;;
37267;SDS011;23154;52.542;13.362;2022-07-04T05:37:25;13.43;;;4.88;;
37267;SDS011;23154;52.542;13.362;2022-07-04T05:39:50;13.32;;;4.68;;
37267;SDS011;23154;52.542;13.362;2022-07-04T05:42:16;15.95;;;4.93;;
37267;SDS011;23154;52.542;13.362;2022-07-04T05:44:42;11.43;;;4.40;;
37267;SDS011;23154;52.542;13.362;2022-07-04T05:47:08;13.77;;;4.35;;
37267;SDS011;23154;52.542;13.362;2022-07-04T05:49:34;13.82;;;4.40;;
37267;SDS011;23154;52.542;13.362;2022-07-04T05:51:59;12.73;;;4.20;;
37267;SDS011;23154;52.542;13.362;2022-07-04T05:54:25;12.00;;;3.78;;
37267;SDS011;23154;52.542;13.362;2022-07-04T05:56:51;15.38;;;4.38;;
37267;SDS011;23154;52.542;13.362;2022-07-04T05:59:16;12.75;;;3.90;;
37267;SDS011;23154;52.542;13.362;2022-07-04T06:01:42;9.90;;;3.55;;
37267;SDS011;23154;52.542;13.362;2022-07-04T06:04:07;12.55;;;3.42;;
37267;SDS011;23154;52.542;13.362;2022-07-04T06:06:33;10.60;;;3.45;;
37267;SDS011;23154;52.542;13.362;2022-07-04T06:09:00;13.02;;;3.65;;
37267;SDS011;23154;52.542;13.362;2022-07-04T06:11:25;11.85;;;3.20;;
37267;SDS011;23154;52.542;13.362;2022-07-04T06:13:51;9.95;;;2.92;;
37267;SDS011;23154;52.542;13.362;2022-07-04T06:16:17;6.50;;;2.72;;
37267;SDS011;23154;52.542;13.362;2022-07-04T06:18:43;7.00;;;2.80;;
37267;SDS011;23154;52.542;13.362;2022-07-04T06:21:08;9.63;;;2.47;;
37267;SDS011;23154;52.542;13.362;2022-07-04T06:23:35;8.40;;;2.17;;
37267;SDS011;23154;52.542;13.362;2022-07-04T06:26:01;7.82;;;2.30;;
37267;SDS011;23154;52.542;13.362;2022-07-04T06:28:27;8.63;;;1.90;;
37267;SDS011;23154;52.542;13.362;2022-07-04T06:30:52;10.80;;;2.00;;
37267;SDS011;23154;52.542;13.362;2022-07-04T06:33:18;6.03;;;1.70;;
37267;SDS011;23154;52.542;13.362;2022-07-04T06:35:44;5.68;;;1.67;;
37267;SDS011;23154;52.542;13.362;2022-07-04T06:38:17;6.38;;;1.63;;
37267;SDS011;23154;52.542;13.362;2022-07-04T06:40:44;8.43;;;1.60;;
37267;SDS011;23154;52.542;13.362;2022-07-04T06:43:10;11.25;;;1.80;;
37267;SDS011;23154;52.542;13.362;2022-07-04T06:45:36;6.20;;;1.50;;
37267;SDS011;23154;52.542;13.362;2022-07-04T06:48:03;6.57;;;1.35;;
37267;SDS011;23154;52.542;13.362;2022-07-04T06:50:29;6.38;;;1.50;;
37267;SDS011;23154;52.542;13.362;2022-07-04T06:52:58;6.40;;;1.60;;
37267;SDS011;23154;52.542;13.362;2022-07-04T06:55:27;6.07;;;1.55;;
37267;SDS011;23154;52.542;13.362;2022-07-04T06:57:53;4.28;;;1.40;;
37267;SDS011;23154;52.542;13.362;2022-07-04T07:00:18;7.22;;;1.40;;
37267;SDS011;23154;52.542;13.362;2022-07-04T07:02:44;3.58;;;1.42;;
37267;SDS011;23154;52.542;13.362;2022-07-04T07:05:09;6.72;;;1.20;;
37267;SDS011;23154;52.542;13.362;2022-07-04T07:07:35;6.22;;;1.50;;
37267;SDS011;23154;52.542;13.362;2022-07-04T07:10:01;7.38;;;1.63;;
37267;SDS011;23154;52.542;13.362;2022-07-04T07:12:28;7.07;;;1.60;;
37267;SDS011;23154;52.542;13.362;2022-07-04T07:14:54;6.30;;;1.65;;
37267;SDS011;23154;52.542;13.362;2022-07-04T07:17:21;5.53;;;1.40;;
37267;SDS011;23154;52.542;13.362;2022-07-04T07:19:47;9.07;;;1.88;;
37267;SDS011;23154;52.542;13.362;2022-07-04T07:22:13;9.57;;;1.65;;
37267;SDS011;23154;52.542;13.362;2022-07-04T07:24:39;4.47;;;1.30;;
37267;SDS011;23154;52.542;13.362;2022-07-04T07:27:05;6.38;;;1.35;;
37267;SDS011;23154;52.542;13.362;2022-07-04T07:29:31;8.95;;;1.50;;
37267;SDS011;23154;52.542;13.362;2022-07-04T07:31:57;4.07;;;1.30;;
37267;SDS011;23154;52.542;13.362;2022-07-04T07:34:23;4.63;;;1.38;;
37267;SDS011;23154;52.542;13.362;2022-07-04T07:36:49;4.80;;;1.40;;
37267;SDS011;23154;52.542;13.362;2022-07-04T07:39:15;3.90;;;1.30;;
37267;SDS011;23154;52.542;13.362;2022-07-04T07:41:41;5.75;;;1.45;;
37267;SDS011;23154;52.542;13.362;2022-07-04T07:44:07;9.98;;;1.50;;
37267;SDS011;23154;52.542;13.362;2022-07-04T07:46:32;5.10;;;1.30;;
37267;SDS011;23154;52.542;13.362;2022-07-04T07:48:58;11.23;;;1.52;;
37267;SDS011;23154;52.542;13.362;2022-07-04T07:51:25;4.45;;;1.38;;
37267;SDS011;23154;52.542;13.362;2022-07-04T07:53:51;9.10;;;1.65;;
37267;SDS011;23154;52.542;13.362;2022-07-04T07:56:17;10.15;;;1.45;;
37267;SDS011;23154;52.542;13.362;2022-07-04T07:58:42;8.35;;;1.40;;
37267;SDS011;23154;52.542;13.362;2022-07-04T08:01:08;8.35;;;1.30;;
37267;SDS011;23154;52.542;13.362;2022-07-04T08:03:34;12.15;;;1.70;;
37267;SDS011;23154;52.542;13.362;2022-07-04T08:06:18;12.20;;;1.73;;
37267;SDS011;23154;52.542;13.362;2022-07-04T08:08:43;6.35;;;1.35;;
37267;SDS011;23154;52.542;13.362;2022-07-04T08:11:10;6.40;;;1.60;;
37267;SDS011;23154;52.542;13.362;2022-07-04T08:13:37;8.20;;;1.42;;
37267;SDS011;23154;52.542;13.362;2022-07-04T08:16:03;4.50;;;1.40;;
37267;SDS011;23154;52.542;13.362;2022-07-04T08:18:30;7.53;;;1.30;;
37267;SDS011;23154;52.542;13.362;2022-07-04T08:20:57;5.55;;;1.27;;
37267;SDS011;23154;52.542;13.362;2022-07-04T08:23:22;5.90;;;1.27;;
37267;SDS011;23154;52.542;13.362;2022-07-04T08:25:48;5.90;;;1.58;;
37267;SDS011;23154;52.542;13.362;2022-07-04T08:28:14;6.07;;;1.40;;
37267;SDS011;23154;52.542;13.362;2022-07-04T08:30:39;9.52;;;1.58;;
37267;SDS011;23154;52.542;13.362;2022-07-04T08:33:05;9.68;;;1.45;;
37267;SDS011;23154;52.542;13.362;2022-07-04T08:35:30;8.07;;;1.70;;
37267;SDS011;23154;52.542;13.362;2022-07-04T08:37:56;3.83;;;1.15;;
37267;SDS011;23154;52.542;13.362;2022-07-04T08:40:22;5.90;;;1.40;;
37267;SDS011;23154;52.542;13.362;2022-07-04T08:42:49;5.00;;;1.40;;
37267;SDS011;23154;52.542;13.362;2022-07-04T08:45:15;7.50;;;1.52;;
37267;SDS011;23154;52.542;13.362;2022-07-04T08:47:42;6.55;;;1.60;;
37267;SDS011;23154;52.542;13.362;2022-07-04T08:50:10;7.20;;;1.45;;
37267;SDS011;23154;52.542;13.362;2022-07-04T08:52:38;6.20;;;1.13;;
37267;SDS011;23154;52.542;13.362;2022-07-04T08:55:06;11.23;;;1.60;;
37267;SDS011;23154;52.542;13.362;2022-07-04T08:57:52;8.45;;;1.88;;
37267;SDS011;23154;52.542;13.362;2022-07-04T09:00:37;8.10;;;1.60;;
37267;SDS011;23154;52.542;13.362;2022-07-04T09:03:03;9.73;;;1.60;;
37267;SDS011;23154;52.542;13.362;2022-07-04T09:05:30;8.52;;;1.38;;
37267;SDS011;23154;52.542;13.362;2022-07-04T09:07:59;5.22;;;1.45;;
37267;SDS011;23154;52.542;13.362;2022-07-04T09:10:26;5.47;;;1.52;;
37267;SDS011;23154;52.542;13.362;2022-07-04T09:12:52;10.80;;;1.80;;
37267;SDS011;23154;52.542;13.362;2022-07-04T09:15:18;8.93;;;1.30;;
37267;SDS011;23154;52.542;13.362;2022-07-04T09:17:44;7.72;;;1.50;;
37267;SDS011;23154;52.542;13.362;2022-07-04T09:20:20;6.60;;;1.50;;
37267;SDS011;23154;52.542;13.362;2022-07-04T09:22:48;10.13;;;1.52;;
37267;SDS011;23154;52.542;13.362;2022-07-04T09:25:15;6.97;;;1.42;;
37267;SDS011;23154;52.542;13.362;2022-07-04T09:27:45;8.18;;;1.60;;
37267;SDS011;23154;52.542;13.362;2022-07-04T09:30:16;6.72;;;1.42;;
37267;SDS011;23154;52.542;13.362;2022-07-04T09:32:51;9.27;;;2.05;;
37267;SDS011;23154;52.542;13.362;2022-07-04T09:35:23;7.32;;;1.40;;
37267;SDS011;23154;52.542;13.362;2022-07-04T09:37:56;8.90;;;1.45;;
37267;SDS011;23154;52.542;13.362;2022-07-04T09:40:33;7.82;;;1.27;;
37267;SDS011;23154;52.542;13.362;2022-07-04T09:43:19;13.00;;;1.90;;
37267;SDS011;23154;52.542;13.362;2022-07-04T09:45:54;8.57;;;1.52;;
37267;SDS011;23154;52.542;13.362;2022-07-04T09:48:20;5.43;;;1.25;;
37267;SDS011;23154;52.542;13.362;2022-07-04T09:50:46;9.23;;;1.83;;
37267;SDS011;23154;52.542;13.362;2022-07-04T09:53:11;11.40;;;1.60;;
37267;SDS011;23154;52.542;13.362;2022-07-04T09:55:37;5.25;;;1.30;;
37267;SDS011;23154;52.542;13.362;2022-07-04T09:58:04;5.53;;;1.40;;
37267;SDS011;23154;52.542;13.362;2022-07-04T10:00:35;8.43;;;1.60;;
37267;SDS011;23154;52.542;13.362;2022-07-04T10:03:15;20.65;;;2.40;;
37267;SDS011;23154;52.542;13.362;2022-07-04T10:05:44;10.73;;;1.63;;
37267;SDS011;23154;52.542;13.362;2022-07-04T10:08:11;3.88;;;1.33;;
37267;SDS011;23154;52.542;13.362;2022-07-04T10:10:37;5.18;;;1.17;;
37267;SDS011;23154;52.542;13.362;2022-07-04T10:15:32;4.82;;;1.50;;
37267;SDS011;23154;52.542;13.362;2022-07-04T10:17:59;4.63;;;1.10;;
37267;SDS011;23154;52.542;13.362;2022-07-04T10:20:25;6.78;;;1.48;;
37267;SDS011;23154;52.542;13.362;2022-07-04T10:22:51;6.05;;;1.25;;
37267;SDS011;23154;52.542;13.362;2022-07-04T10:25:17;5.82;;;1.40;;
37267;SDS011;23154;52.542;13.362;2022-07-04T10:27:44;4.45;;;1.17;;
37267;SDS011;23154;52.542;13.362;2022-07-04T10:30:11;7.35;;;1.45;;
37267;SDS011;23154;52.542;13.362;2022-07-04T10:32:39;4.72;;;1.20;;
37267;SDS011;23154;52.542;13.362;2022-07-04T10:35:08;10.57;;;1.60;;
37267;SDS011;23154;52.542;13.362;2022-07-04T10:40:42;9.80;;;1.83;;
37267;SDS011;23154;52.542;13.362;2022-07-04T10:43:35;4.85;;;1.35;;
37267;SDS011;23154;52.542;13.362;2022-07-04T10:48:51;6.68;;;1.25;;
37267;SDS011;23154;52.542;13.362;2022-07-04T10:51:31;6.65;;;1.40;;
37267;SDS011;23154;52.542;13.362;2022-07-04T10:56:53;7.68;;;1.55;;
37267;SDS011;23154;52.542;13.362;2022-07-04T10:59:33;4.55;;;1.42;;
37267;SDS011;23154;52.542;13.362;2022-07-04T11:17:53;5.30;;;1.30;;
37267;SDS011;23154;52.542;13.362;2022-07-04T11:20:21;7.88;;;1.50;;
37267;SDS011;23154;52.542;13.362;2022-07-04T11:22:47;7.78;;;1.73;;
37267;SDS011;23154;52.542;13.362;2022-07-04T11:25:14;9.00;;;1.90;;
37267;SDS011;23154;52.542;13.362;2022-07-04T11:27:40;9.50;;;1.50;;
37267;SDS011;23154;52.542;13.362;2022-07-04T11:30:07;3.08;;;1.20;;
37267;SDS011;23154;52.542;13.362;2022-07-04T11:32:34;8.65;;;1.40;;
37267;SDS011;23154;52.542;13.362;2022-07-04T11:35:03;5.70;;;1.30;;
37267;SDS011;23154;52.542;13.362;2022-07-04T11:37:30;6.05;;;1.48;;
37267;SDS011;23154;52.542;13.362;2022-07-04T11:39:56;4.47;;;1.40;;
37267;SDS011;23154;52.542;13.362;2022-07-04T11:45:48;7.70;;;1.30;;
37267;SDS011;23154;52.542;13.362;2022-07-04T11:48:26;5.90;;;1.50;;
37267;SDS011;23154;52.542;13.362;2022-07-04T11:50:52;3.70;;;1.05;;
37267;SDS011;23154;52.542;13.362;2022-07-04T11:53:19;6.20;;;1.20;;
37267;SDS011;23154;52.542;13.362;2022-07-04T11:55:55;3.50;;;1.20;;
37267;SDS011;23154;52.542;13.362;2022-07-04T11:58:22;9.52;;;1.77;;
37267;SDS011;23154;52.542;13.362;2022-07-04T12:00:48;7.88;;;1.35;;
37267;SDS011;23154;52.542;13.362;2022-07-04T12:03:14;6.93;;;1.30;;
37267;SDS011;23154;52.542;13.362;2022-07-04T12:05:40;24.20;;;2.60;;
37267;SDS011;23154;52.542;13.362;2022-07-04T12:08:08;15.00;;;3.63;;
37267;SDS011;23154;52.542;13.362;2022-07-04T12:10:34;16.95;;;2.05;;
37267;SDS011;23154;52.542;13.362;2022-07-04T12:15:37;13.38;;;2.83;;
37267;SDS011;23154;52.542;13.362;2022-07-04T12:18:05;11.10;;;1.70;;
37267;SDS011;23154;52.542;13.362;2022-07-04T12:20:42;10.93;;;1.95;;
37267;SDS011;23154;52.542;13.362;2022-07-04T12:23:08;19.05;;;5.13;;
37267;SDS011;23154;52.542;13.362;2022-07-04T12:25:35;6.70;;;1.60;;
37267;SDS011;23154;52.542;13.362;2022-07-04T12:28:04;8.50;;;1.50;;
37267;SDS011;23154;52.542;13.362;2022-07-04T12:30:32;27.73;;;4.03;;
37267;SDS011;23154;52.542;13.362;2022-07-04T12:33:03;7.47;;;1.85;;
37267;SDS011;23154;52.542;13.362;2022-07-04T12:35:49;7.90;;;1.70;;
37267;SDS011;23154;52.542;13.362;2022-07-04T12:41:15;3.78;;;1.20;;
37267;SDS011;23154;52.542;13.362;2022-07-04T12:46:05;5.70;;;1.30;;
37267;SDS011;23154;52.542;13.362;2022-07-04T12:48:58;3.22;;;1.10;;
37267;SDS011;23154;52.542;13.362;2022-07-04T12:51:26;3.70;;;1.23;;
37267;SDS011;23154;52.542;13.362;2022-07-04T12:53:59;3.42;;;1.08;;
37267;SDS011;23154;52.542;13.362;2022-07-04T12:56:40;6.18;;;1.20;;
37267;SDS011;23154;52.542;13.362;2022-07-04T12:59:09;3.70;;;1.05;;
37267;SDS011;23154;52.542;13.362;2022-07-04T13:04:08;10.70;;;1.30;;
37267;SDS011;23154;52.542;13.362;2022-07-04T13:06:34;9.27;;;1.52;;
37267;SDS011;23154;52.542;13.362;2022-07-04T13:09:01;13.30;;;2.05;;
37267;SDS011;23154;52.542;13.362;2022-07-04T13:11:28;4.82;;;1.33;;
37267;SDS011;23154;52.542;13.362;2022-07-04T13:14:12;6.75;;;1.40;;
37267;SDS011;23154;52.542;13.362;2022-07-04T13:16:38;15.95;;;3.80;;
37267;SDS011;23154;52.542;13.362;2022-07-04T13:19:04;7.68;;;2.08;;
37267;SDS011;23154;52.542;13.362;2022-07-04T13:21:30;5.30;;;1.20;;
37267;SDS011;23154;52.542;13.362;2022-07-04T13:23:56;6.63;;;1.02;;
37267;SDS011;23154;52.542;13.362;2022-07-04T13:26:24;10.15;;;1.73;;
37267;SDS011;23154;52.542;13.362;2022-07-04T13:28:50;4.28;;;1.15;;
37267;SDS011;23154;52.542;13.362;2022-07-04T13:31:16;7.68;;;1.50;;
37267;SDS011;23154;52.542;13.362;2022-07-04T13:33:42;7.32;;;1.60;;
37267;SDS011;23154;52.542;13.362;2022-07-04T13:36:08;4.28;;;1.17;;
37267;SDS011;23154;52.542;13.362;2022-07-04T13:38:34;5.78;;;1.23;;
37267;SDS011;23154;52.542;13.362;2022-07-04T13:41:02;4.00;;;1.10;;
37267;SDS011;23154;52.542;13.362;2022-07-04T13:43:29;4.63;;;1.10;;
37267;SDS011;23154;52.542;13.362;2022-07-04T13:45:56;8.18;;;1.15;;
37267;SDS011;23154;52.542;13.362;2022-07-04T13:48:22;6.93;;;1.10;;
37267;SDS011;23154;52.542;13.362;2022-07-04T13:50:47;11.48;;;1.30;;
37267;SDS011;23154;52.542;13.362;2022-07-04T13:53:13;4.60;;;1.30;;
37267;SDS011;23154;52.542;13.362;2022-07-04T13:55:39;8.60;;;1.40;;
37267;SDS011;23154;52.542;13.362;2022-07-04T13:58:05;3.75;;;1.13;;
37267;SDS011;23154;52.542;13.362;2022-07-04T14:00:33;7.72;;;1.58;;
37267;SDS011;23154;52.542;13.362;2022-07-04T14:03:03;21.67;;;2.35;;
37267;SDS011;23154;52.542;13.362;2022-07-04T14:05:29;3.80;;;0.90;;
37267;SDS011;23154;52.542;13.362;2022-07-04T14:07:56;3.92;;;1.15;;
37267;SDS011;23154;52.542;13.362;2022-07-04T14:10:21;4.60;;;1.17;;
37267;SDS011;23154;52.542;13.362;2022-07-04T14:12:47;10.18;;;1.52;;
37267;SDS011;23154;52.542;13.362;2022-07-04T14:15:13;4.03;;;1.10;;
37267;SDS011;23154;52.542;13.362;2022-07-04T14:17:38;4.63;;;1.15;;
37267;SDS011;23154;52.542;13.362;2022-07-04T14:20:05;7.10;;;1.33;;
37267;SDS011;23154;52.542;13.362;2022-07-04T14:22:33;4.38;;;1.10;;
37267;SDS011;23154;52.542;13.362;2022-07-04T14:24:59;4.93;;;1.35;;
37267;SDS011;23154;52.542;13.362;2022-07-04T14:27:24;8.35;;;1.42;;
37267;SDS011;23154;52.542;13.362;2022-07-04T14:29:50;5.47;;;1.52;;
37267;SDS011;23154;52.542;13.362;2022-07-04T14:32:16;4.40;;;1.20;;
37267;SDS011;23154;52.542;13.362;2022-07-04T14:34:41;4.75;;;1.10;;
37267;SDS011;23154;52.542;13.362;2022-07-04T14:37:07;4.30;;;1.13;;
37267;SDS011;23154;52.542;13.362;2022-07-04T14:39:33;3.60;;;1.08;;
37267;SDS011;23154;52.542;13.362;2022-07-04T14:41:59;5.43;;;1.10;;
37267;SDS011;23154;52.542;13.362;2022-07-04T14:44:24;3.78;;;1.13;;
37267;SDS011;23154;52.542;13.362;2022-07-04T14:46:50;5.43;;;1.20;;
37267;SDS011;23154;52.542;13.362;2022-07-04T14:49:16;8.13;;;1.20;;
37267;SDS011;23154;52.542;13.362;2022-07-04T14:51:41;8.38;;;1.35;;
37267;SDS011;23154;52.542;13.362;2022-07-04T14:54:07;6.88;;;1.30;;
37267;SDS011;23154;52.542;13.362;2022-07-04T14:56:34;4.03;;;1.10;;
37267;SDS011;23154;52.542;13.362;2022-07-04T14:59:00;5.18;;;1.20;;
37267;SDS011;23154;52.542;13.362;2022-07-04T15:01:26;6.20;;;1.35;;
37267;SDS011;23154;52.542;13.362;2022-07-04T15:03:54;6.95;;;1.38;;
37267;SDS011;23154;52.542;13.362;2022-07-04T15:06:20;7.57;;;2.10;;
37267;SDS011;23154;52.542;13.362;2022-07-04T15:08:46;8.07;;;1.25;;